createdAt,value
2023-04-29T00:00:12.014Z,41.85
2023-04-29T00:02:39.116Z,43.20
2023-04-29T00:05:06.685Z,51.45
2023-04-29T00:07:33.811Z,47.60
2023-04-29T00:10:00.743Z,46.05
2023-04-29T00:12:30.155Z,46.15
2023-04-29T00:14:57.084Z,40.50
2023-04-29T00:17:25.089Z,45.20
2023-04-29T00:19:52.078Z,46.90
2023-04-29T00:22:19.496Z,53.17
2023-04-29T00:24:46.190Z,51.42
2023-04-29T00:27:12.870Z,51.45
2023-04-29T00:29:39.613Z,49.22
2023-04-29T00:32:06.292Z,50.88
2023-04-29T00:34:33.387Z,49.88
2023-04-29T00:37:00.153Z,48.10
2023-04-29T00:39:27.779Z,46.20
2023-04-29T00:41:54.635Z,46.35
2023-04-29T00:44:21.308Z,46.20
2023-04-29T00:46:48.182Z,51.40
2023-04-29T00:49:15.005Z,42.58
2023-04-29T00:51:42.625Z,47.88
2023-04-29T00:54:10.918Z,42.33
2023-04-29T00:56:39.445Z,42.13
2023-04-29T00:59:06.546Z,44.75
2023-04-29T01:01:33.614Z,46.13
2023-04-29T01:04:01.115Z,37.42
2023-04-29T01:06:59.249Z,37.00
2023-04-29T01:09:29.011Z,53.67
2023-04-29T01:12:08.125Z,47.45
2023-04-29T01:14:37.806Z,52.33
2023-04-29T01:17:10.489Z,43.22
2023-04-29T01:19:47.805Z,47.75
2023-04-29T01:22:17.647Z,48.75
2023-04-29T01:24:44.683Z,47.10
2023-04-29T01:27:29.787Z,51.78
2023-04-29T01:30:17.241Z,47.30
2023-04-29T01:32:54.098Z,49.53
2023-04-29T01:35:38.294Z,47.70
2023-04-29T01:38:37.780Z,52.92
2023-04-29T01:41:34.927Z,50.00
2023-04-29T01:44:24.292Z,53.03
2023-04-29T01:46:54.049Z,52.20
2023-04-29T01:49:27.157Z,53.70
2023-04-29T01:51:54.118Z,57.97
2023-04-29T01:54:22.383Z,51.25
2023-04-29T01:56:49.555Z,48.72
2023-04-29T01:59:23.184Z,46.92
2023-04-29T02:02:05.461Z,53.58
2023-04-29T02:04:34.654Z,51.33
2023-04-29T02:07:03.936Z,45.63
2023-04-29T02:09:30.940Z,54.17
2023-04-29T02:12:05.714Z,48.13
2023-04-29T02:14:35.046Z,58.92
2023-04-29T02:17:04.221Z,57.30
2023-04-29T02:19:31.363Z,52.10
2023-04-29T02:21:58.361Z,49.47
2023-04-29T02:24:25.981Z,48.65
2023-04-29T02:26:53.230Z,53.45
2023-04-29T02:29:20.109Z,42.45
2023-04-29T02:31:47.163Z,40.45
2023-04-29T02:34:13.808Z,49.83
2023-04-29T02:36:40.495Z,45.03
2023-04-29T02:39:07.195Z,35.17
2023-04-29T02:41:34.647Z,30.98
2023-04-29T02:44:02.133Z,32.05
2023-04-29T02:46:29.355Z,31.13
2023-04-29T02:48:56.389Z,35.28
2023-04-29T02:51:23.290Z,43.08
2023-04-29T02:53:50.353Z,35.65
2023-04-29T02:56:17.065Z,34.85
2023-04-29T02:58:43.738Z,40.05
2023-04-29T03:01:10.833Z,37.47
2023-04-29T03:03:37.788Z,41.90
2023-04-29T03:06:04.613Z,41.13
2023-04-29T03:08:31.309Z,35.28
2023-04-29T03:10:58.639Z,41.28
2023-04-29T03:13:25.408Z,41.20
2023-04-29T03:15:52.193Z,35.83
2023-04-29T03:18:18.900Z,33.10
2023-04-29T03:20:45.884Z,36.55
2023-04-29T03:23:12.511Z,36.90
2023-04-29T03:25:39.486Z,36.67
2023-04-29T03:28:06.944Z,40.15
2023-04-29T03:30:34.599Z,39.55
2023-04-29T03:33:02.189Z,43.00
2023-04-29T03:35:30.408Z,42.78
2023-04-29T03:38:26.008Z,46.72
2023-04-29T03:40:54.160Z,42.03
2023-04-29T03:43:21.695Z,42.03
2023-04-29T03:45:48.619Z,39.97
2023-04-29T03:48:19.994Z,41.92
2023-04-29T03:50:46.945Z,43.08
2023-04-29T03:53:13.982Z,49.20
2023-04-29T03:55:40.867Z,37.03
2023-04-29T03:58:08.974Z,42.38
2023-04-29T04:00:35.738Z,36.58
2023-04-29T04:03:06.762Z,46.57
2023-04-29T04:05:35.486Z,38.63
2023-04-29T04:08:08.344Z,37.22
2023-04-29T04:10:35.022Z,44.75
2023-04-29T04:13:05.729Z,50.00
2023-04-29T04:15:32.805Z,44.03
2023-04-29T04:17:59.891Z,46.22
2023-04-29T04:20:26.926Z,44.85
2023-04-29T04:22:54.852Z,50.95
2023-04-29T04:25:28.172Z,54.47
2023-04-29T04:28:00.785Z,48.97
2023-04-29T04:30:46.604Z,53.58
2023-04-29T04:33:14.442Z,53.47
2023-04-29T04:35:43.636Z,53.08
2023-04-29T04:38:11.454Z,52.22
2023-04-29T04:40:43.068Z,57.42
2023-04-29T04:43:24.574Z,57.80
2023-04-29T04:45:52.134Z,59.80
2023-04-29T04:48:19.425Z,61.00
2023-04-29T04:50:49.533Z,60.33
2023-04-29T04:53:16.435Z,59.80
2023-04-29T04:55:52.702Z,61.75
2023-04-29T04:58:19.421Z,60.35
2023-04-29T05:00:46.490Z,64.30
2023-04-29T05:03:13.644Z,59.40
2023-04-29T05:05:40.432Z,54.25
2023-04-29T05:08:07.773Z,53.85
2023-04-29T05:10:44.417Z,53.95
2023-04-29T05:13:12.214Z,59.17
2023-04-29T05:15:39.532Z,58.17
2023-04-29T05:18:07.927Z,62.42
2023-04-29T05:20:35.221Z,61.08
2023-04-29T05:23:03.315Z,56.00
2023-04-29T05:25:35.470Z,66.75
2023-04-29T05:28:04.505Z,62.15
2023-04-29T05:30:34.298Z,54.50
2023-04-29T05:33:01.110Z,53.05
2023-04-29T05:35:28.027Z,59.13
2023-04-29T05:37:55.030Z,58.28
2023-04-29T05:40:30.511Z,62.17
2023-04-29T05:43:14.741Z,66.65
2023-04-29T05:45:41.424Z,58.88
2023-04-29T05:48:08.137Z,66.20
2023-04-29T05:50:35.290Z,68.10
2023-04-29T05:53:02.581Z,67.18
2023-04-29T05:55:29.381Z,61.90
2023-04-29T05:57:56.466Z,65.50
2023-04-29T06:00:23.399Z,68.63
2023-04-29T06:08:15.177Z,66.50
2023-04-29T06:10:44.651Z,67.95
2023-04-29T06:13:11.631Z,65.18
2023-04-29T06:15:38.343Z,64.10
2023-04-29T06:18:05.131Z,61.17
2023-04-29T06:20:31.859Z,60.45
2023-04-29T06:22:58.927Z,66.72
2023-04-29T06:25:25.606Z,63.72
2023-04-29T06:27:52.676Z,60.88
2023-04-29T06:30:30.883Z,64.97
2023-04-29T06:32:57.874Z,61.45
2023-04-29T06:35:24.806Z,58.38
2023-04-29T06:38:11.749Z,59.75
2023-04-29T06:40:47.363Z,72.15
2023-04-29T06:43:16.853Z,56.60
2023-04-29T06:46:13.040Z,53.95
2023-04-29T06:48:45.975Z,62.97
2023-04-29T06:51:12.851Z,62.35
2023-04-29T06:53:39.708Z,57.25
2023-04-29T06:56:06.936Z,59.88
2023-04-29T06:58:33.585Z,60.42
2023-04-29T07:01:00.955Z,55.72
2023-04-29T07:03:27.858Z,65.03
2023-04-29T07:05:54.696Z,64.55
2023-04-29T07:08:21.450Z,58.85
2023-04-29T07:10:56.627Z,56.45
2023-04-29T07:13:24.933Z,56.97
2023-04-29T07:15:51.657Z,55.97
2023-04-29T07:18:18.614Z,49.00
2023-04-29T07:20:46.045Z,51.47
2023-04-29T07:23:12.980Z,59.20
2023-04-29T07:25:41.091Z,49.80
2023-04-29T07:28:10.579Z,49.30
2023-04-29T07:30:37.530Z,57.92
2023-04-29T07:33:04.874Z,52.13
2023-04-29T07:35:31.940Z,54.42
2023-04-29T07:37:58.637Z,47.22
2023-04-29T07:40:26.267Z,44.10
2023-04-29T07:42:57.539Z,44.63
2023-04-29T07:45:24.204Z,47.65
2023-04-29T07:47:51.316Z,44.35
2023-04-29T07:50:18.183Z,45.17
2023-04-29T07:52:45.082Z,43.25
2023-04-29T07:55:11.794Z,42.22
2023-04-29T07:57:38.712Z,47.33
2023-04-29T08:00:07.072Z,40.63
2023-04-29T08:02:42.490Z,46.78
2023-04-29T08:05:11.030Z,43.17
2023-04-29T08:07:38.812Z,40.80
2023-04-29T08:10:06.436Z,37.80
2023-04-29T08:12:33.302Z,39.42
2023-04-29T08:15:00.754Z,36.35
2023-04-29T08:17:27.731Z,37.28
2023-04-29T08:19:54.406Z,31.95
2023-04-29T08:22:21.091Z,31.90
2023-04-29T08:24:48.514Z,33.40
2023-04-29T08:27:15.484Z,33.60
2023-04-29T08:29:43.029Z,27.65
2023-04-29T08:32:09.856Z,30.30
2023-04-29T08:34:37.558Z,30.50
2023-04-29T08:37:04.234Z,25.40
2023-04-29T08:39:31.314Z,22.90
2023-04-29T08:41:59.265Z,22.80
2023-04-29T08:44:30.323Z,26.88
2023-04-29T08:46:59.423Z,23.55
2023-04-29T08:49:26.514Z,26.50
2023-04-29T08:51:53.289Z,24.70
2023-04-29T08:54:19.990Z,25.90
2023-04-29T08:56:47.609Z,27.02
2023-04-29T08:59:16.435Z,25.20
2023-04-29T09:01:44.517Z,22.30
2023-04-29T09:04:56.632Z,24.35
2023-04-29T09:07:24.234Z,25.13
2023-04-29T09:09:52.775Z,21.30
2023-04-29T09:12:19.471Z,22.25
2023-04-29T09:14:46.197Z,21.60
2023-04-29T09:17:12.865Z,19.70
2023-04-29T09:19:39.496Z,23.70
2023-04-29T09:22:07.570Z,21.77
2023-04-29T09:24:34.604Z,23.80
2023-04-29T09:27:03.399Z,27.58
2023-04-29T09:29:31.980Z,20.65
2023-04-29T09:31:59.027Z,20.50
2023-04-29T09:34:35.559Z,23.05
2023-04-29T09:37:02.613Z,21.95
2023-04-29T09:39:38.872Z,18.80
2023-04-29T09:42:06.250Z,21.30
2023-04-29T09:44:37.762Z,17.23
2023-04-29T09:47:09.672Z,17.73
2023-04-29T09:52:14.987Z,22.20
2023-04-29T09:54:43.150Z,21.00
2023-04-29T09:57:11.850Z,18.42
2023-04-29T09:59:40.207Z,22.27
2023-04-29T10:02:20.955Z,25.05
2023-04-29T10:04:54.215Z,20.17
2023-04-29T10:07:21.935Z,19.48
2023-04-29T10:09:49.219Z,20.25
2023-04-29T10:12:17.931Z,18.73
2023-04-29T10:15:17.419Z,22.42
2023-04-29T10:17:47.221Z,17.90
2023-04-29T10:20:26.988Z,15.43
2023-04-29T10:22:56.422Z,19.48
2023-04-29T10:25:24.682Z,14.55
2023-04-29T10:27:55.120Z,14.10
2023-04-29T10:30:22.612Z,17.55
2023-04-29T10:32:52.189Z,17.35
2023-04-29T10:35:22.784Z,14.82
2023-04-29T10:37:50.208Z,14.57
2023-04-29T10:40:36.716Z,19.58
2023-04-29T10:43:04.583Z,18.75
2023-04-29T10:45:34.893Z,13.15
2023-04-29T10:48:10.644Z,13.88
2023-04-29T10:50:49.521Z,11.35
2023-04-29T10:53:19.460Z,13.23
2023-04-29T10:55:54.743Z,12.70
2023-04-29T10:58:36.609Z,15.50
2023-04-29T11:01:04.116Z,13.30
2023-04-29T11:03:55.035Z,13.68
2023-04-29T11:06:39.707Z,10.63
2023-04-29T11:09:19.294Z,13.65
2023-04-29T11:11:57.988Z,12.00
2023-04-29T11:14:36.637Z,12.32
2023-04-29T11:17:08.090Z,14.50
2023-04-29T11:19:36.612Z,12.63
2023-04-29T11:22:18.500Z,16.90
2023-04-29T11:24:55.339Z,11.63
2023-04-29T11:27:25.940Z,13.30
2023-04-29T11:29:58.810Z,11.30
2023-04-29T11:32:28.018Z,11.68
2023-04-29T11:34:55.758Z,12.25
2023-04-29T11:37:25.996Z,12.93
2023-04-29T11:39:59.985Z,9.27
2023-04-29T11:42:27.476Z,10.25
2023-04-29T11:44:57.850Z,11.90
2023-04-29T11:47:29.303Z,10.82
2023-04-29T11:50:08.095Z,10.02
2023-04-29T11:52:39.247Z,9.15
2023-04-29T11:55:08.542Z,10.90
2023-04-29T11:57:36.398Z,15.10
2023-04-29T12:00:05.232Z,11.43
2023-04-29T12:02:35.324Z,18.02
2023-04-29T12:05:08.035Z,10.15
2023-04-29T12:07:38.342Z,13.25
2023-04-29T12:10:09.777Z,13.98
2023-04-29T12:12:41.574Z,13.18
2023-04-29T12:15:10.155Z,8.50
2023-04-29T12:17:37.820Z,13.60
2023-04-29T12:20:05.217Z,10.95
2023-04-29T12:22:35.326Z,9.70
2023-04-29T12:25:04.180Z,13.40
2023-04-29T12:27:30.973Z,12.15
2023-04-29T12:29:58.341Z,13.88
2023-04-29T12:32:25.605Z,12.98
2023-04-29T12:34:53.111Z,12.80
2023-04-29T12:37:23.290Z,13.90
2023-04-29T12:39:50.796Z,13.15
2023-04-29T12:42:18.408Z,10.60
2023-04-29T12:44:47.462Z,10.40
2023-04-29T12:47:16.559Z,8.82
2023-04-29T12:49:45.115Z,9.52
2023-04-29T12:52:12.100Z,9.45
2023-04-29T12:54:41.807Z,9.20
2023-04-29T12:57:09.806Z,12.25
2023-04-29T12:59:37.210Z,11.45
2023-04-29T13:02:04.059Z,10.45
2023-04-29T13:04:31.062Z,8.15
2023-04-29T13:07:02.107Z,7.70
2023-04-29T13:09:29.016Z,9.35
2023-04-29T13:11:55.659Z,10.13
2023-04-29T13:14:22.551Z,7.95
2023-04-29T13:16:49.400Z,7.35
2023-04-29T13:19:28.212Z,7.43
2023-04-29T13:22:02.239Z,6.38
2023-04-29T13:24:28.866Z,9.63
2023-04-29T13:26:55.531Z,6.43
2023-04-29T13:29:22.187Z,11.05
2023-04-29T13:31:49.783Z,9.43
2023-04-29T13:34:16.455Z,11.70
2023-04-29T13:36:43.284Z,10.25
2023-04-29T13:39:10.503Z,10.43
2023-04-29T13:41:37.301Z,12.50
2023-04-29T13:44:06.803Z,7.10
2023-04-29T13:46:42.789Z,6.28
2023-04-29T13:49:35.246Z,10.45
2023-04-29T13:52:47.424Z,7.00
2023-04-29T13:59:50.195Z,9.15
2023-04-29T14:04:48.976Z,9.98
2023-04-29T14:07:16.056Z,5.47
2023-04-29T14:09:43.017Z,8.70
2023-04-29T14:12:09.751Z,7.82
2023-04-29T14:14:36.986Z,8.85
2023-04-29T14:17:03.752Z,6.97
2023-04-29T14:19:30.410Z,6.35
2023-04-29T14:21:57.062Z,8.57
2023-04-29T14:24:23.707Z,7.85
2023-04-29T14:26:50.396Z,8.43
2023-04-29T14:29:17.073Z,5.57
2023-04-29T14:31:44.168Z,6.45
2023-04-29T14:34:10.909Z,10.25
2023-04-29T14:36:37.514Z,7.63
2023-04-29T14:39:04.264Z,6.35
2023-04-29T14:41:30.964Z,4.68
2023-04-29T14:43:57.670Z,6.65
2023-04-29T14:46:25.213Z,9.20
2023-04-29T14:48:51.930Z,6.05
2023-04-29T14:51:18.616Z,5.25
2023-04-29T14:53:45.310Z,8.57
2023-04-29T14:56:12.031Z,5.78
2023-04-29T14:58:38.835Z,5.22
2023-04-29T15:01:05.520Z,4.88
2023-04-29T15:03:32.353Z,5.50
2023-04-29T15:06:00.597Z,6.63
2023-04-29T15:08:27.622Z,4.93
2023-04-29T15:10:54.372Z,5.03
2023-04-29T15:13:21.031Z,5.10
2023-04-29T15:15:49.216Z,6.53
2023-04-29T15:18:16.017Z,5.03
2023-04-29T15:20:42.708Z,9.77
2023-04-29T15:23:09.408Z,5.97
2023-04-29T15:25:38.250Z,4.78
2023-04-29T15:28:05.730Z,5.35
2023-04-29T15:30:32.783Z,6.68
2023-04-29T15:32:59.492Z,10.30
2023-04-29T15:35:27.507Z,7.55
2023-04-29T15:37:54.147Z,6.85
2023-04-29T15:40:20.868Z,7.88
2023-04-29T15:42:47.590Z,7.25
2023-04-29T15:45:14.280Z,7.40
2023-04-29T15:47:40.945Z,5.93
2023-04-29T15:50:09.459Z,8.43
2023-04-29T15:52:36.459Z,8.98
2023-04-29T15:55:03.264Z,5.88
2023-04-29T15:57:29.910Z,7.60
2023-04-29T15:59:56.814Z,7.20
2023-04-29T16:02:23.596Z,6.95
2023-04-29T16:04:50.309Z,6.78
2023-04-29T16:07:18.248Z,4.82
2023-04-29T16:09:44.951Z,6.18
2023-04-29T16:12:13.051Z,4.70
2023-04-29T16:14:39.766Z,7.32
2023-04-29T16:17:06.741Z,6.32
2023-04-29T16:19:36.617Z,7.00
2023-04-29T16:22:04.411Z,4.93
2023-04-29T16:24:31.217Z,6.50
2023-04-29T16:26:58.958Z,4.18
2023-04-29T16:29:26.001Z,10.40
2023-04-29T16:31:52.958Z,9.13
2023-04-29T16:34:19.980Z,7.65
2023-04-29T16:36:46.728Z,3.15
2023-04-29T16:39:16.249Z,7.25
2023-04-29T16:41:43.096Z,4.32
2023-04-29T16:44:09.786Z,9.07
2023-04-29T16:46:36.576Z,6.25
2023-04-29T16:49:03.486Z,5.60
2023-04-29T16:51:30.229Z,5.13
2023-04-29T16:53:56.853Z,4.93
2023-04-29T16:56:23.653Z,7.18
2023-04-29T16:58:50.320Z,4.28
2023-04-29T17:01:19.660Z,4.10
2023-04-29T17:03:47.841Z,10.85
2023-04-29T17:06:15.617Z,4.63
2023-04-29T17:08:43.008Z,4.55
2023-04-29T17:11:10.372Z,4.47
2023-04-29T17:13:37.060Z,4.60
2023-04-29T17:16:04.102Z,10.65
2023-04-29T17:18:31.117Z,8.00
2023-04-29T17:20:58.189Z,5.05
2023-04-29T17:23:25.176Z,8.85
2023-04-29T17:25:51.926Z,4.93
2023-04-29T17:28:18.692Z,8.75
2023-04-29T17:30:45.374Z,7.20
2023-04-29T17:33:13.927Z,8.43
2023-04-29T17:35:42.062Z,7.57
2023-04-29T17:38:08.745Z,7.72
2023-04-29T17:40:35.596Z,4.68
2023-04-29T17:43:02.598Z,5.72
2023-04-29T17:45:29.357Z,14.25
2023-04-29T17:47:56.194Z,9.23
2023-04-29T17:50:22.961Z,5.70
2023-04-29T17:52:49.616Z,5.47
2023-04-29T17:55:16.498Z,5.63
2023-04-29T17:57:43.234Z,7.22
2023-04-29T18:00:13.757Z,4.00
2023-04-29T18:02:40.496Z,4.85
2023-04-29T18:05:07.428Z,4.43
2023-04-29T18:07:34.204Z,3.40
2023-04-29T18:10:00.984Z,5.70
2023-04-29T18:12:28.047Z,6.10
2023-04-29T18:14:54.761Z,5.32
2023-04-29T18:17:22.662Z,4.22
2023-04-29T18:19:49.652Z,4.47
2023-04-29T18:22:16.594Z,3.92
2023-04-29T18:24:43.596Z,6.65
2023-04-29T18:27:10.414Z,2.85
2023-04-29T18:29:37.110Z,3.35
2023-04-29T18:32:05.723Z,5.05
2023-04-29T18:34:34.082Z,4.13
2023-04-29T18:37:02.237Z,11.50
2023-04-29T18:39:29.016Z,6.53
2023-04-29T18:41:55.986Z,5.57
2023-04-29T18:44:22.737Z,3.40
2023-04-29T18:46:49.466Z,6.78
2023-04-29T18:49:17.700Z,5.93
2023-04-29T18:51:47.584Z,5.78
2023-04-29T18:54:15.962Z,10.45
2023-04-29T18:56:46.320Z,7.32
2023-04-29T18:59:15.884Z,13.43
2023-04-29T19:01:43.153Z,12.68
2023-04-29T19:04:10.372Z,14.80
2023-04-29T19:06:37.304Z,10.40
2023-04-29T19:09:05.497Z,12.10
2023-04-29T19:11:32.187Z,20.25
2023-04-29T19:13:59.099Z,11.55
2023-04-29T19:16:25.902Z,10.88
2023-04-29T19:18:53.728Z,8.30
2023-04-29T19:21:21.368Z,8.10
2023-04-29T19:24:03.527Z,6.50
2023-04-29T19:29:03.799Z,5.45
2023-04-29T19:31:30.608Z,10.13
2023-04-29T19:33:57.338Z,9.43
2023-04-29T19:36:24.003Z,9.35
2023-04-29T19:38:50.769Z,5.82
2023-04-29T19:41:18.045Z,10.40
2023-04-29T19:43:44.739Z,4.93
2023-04-29T19:46:14.675Z,8.40
2023-04-29T19:48:41.818Z,6.03
2023-04-29T19:51:08.966Z,5.38
2023-04-29T19:53:36.609Z,5.30
2023-04-29T19:56:03.364Z,5.45
2023-04-29T19:58:30.083Z,4.30
2023-04-29T20:00:56.793Z,4.22
2023-04-29T20:03:23.543Z,5.95
2023-04-29T20:05:50.306Z,7.47
2023-04-29T20:08:17.096Z,7.93
2023-04-29T20:10:43.802Z,7.22
2023-04-29T20:13:10.439Z,6.63
2023-04-29T20:15:37.150Z,5.22
2023-04-29T20:18:03.909Z,11.85
2023-04-29T20:20:30.899Z,6.82
2023-04-29T20:23:00.219Z,9.23
2023-04-29T20:25:28.487Z,12.80
2023-04-29T20:27:55.207Z,6.50
2023-04-29T20:30:21.978Z,9.48
2023-04-29T20:32:48.833Z,9.20
2023-04-29T20:35:15.792Z,8.57
2023-04-29T20:37:42.527Z,3.13
2023-04-29T20:40:09.800Z,7.15
2023-04-29T20:42:36.540Z,4.65
2023-04-29T20:45:03.880Z,4.60
2023-04-29T20:47:30.588Z,6.35
2023-04-29T20:49:57.259Z,4.57
2023-04-29T20:52:24.218Z,3.10
2023-04-29T20:54:52.840Z,4.13
2023-04-29T20:57:19.633Z,6.18
2023-04-29T20:59:46.387Z,3.75
2023-04-29T21:02:40.143Z,4.78
2023-04-29T21:05:09.793Z,6.88
2023-04-29T21:07:37.290Z,6.57
2023-04-29T21:10:04.847Z,3.72
2023-04-29T21:12:31.445Z,14.45
2023-04-29T21:14:58.114Z,5.18
2023-04-29T21:17:24.967Z,4.55
2023-04-29T21:19:51.771Z,4.82
2023-04-29T21:22:18.668Z,7.63
2023-04-29T21:24:45.324Z,8.10
2023-04-29T21:27:12.140Z,7.30
2023-04-29T21:29:40.869Z,6.90
2023-04-29T21:32:08.312Z,5.60
2023-04-29T21:34:35.707Z,5.35
2023-04-29T21:37:02.488Z,5.78
2023-04-29T21:39:31.326Z,5.53
2023-04-29T21:42:00.134Z,4.05
2023-04-29T21:44:27.790Z,5.97
2023-04-29T21:46:54.671Z,5.60
2023-04-29T21:49:21.388Z,9.73
2023-04-29T21:51:48.265Z,4.05
2023-04-29T21:54:14.903Z,4.55
2023-04-29T21:56:41.907Z,13.48
2023-04-29T21:59:08.612Z,5.65
2023-04-29T22:01:48.680Z,5.38
2023-04-29T22:04:19.162Z,4.70
2023-04-29T22:06:46.154Z,8.25
2023-04-29T22:09:12.982Z,6.70
2023-04-29T22:11:39.634Z,6.88
2023-04-29T22:14:06.617Z,3.83
2023-04-29T22:16:35.940Z,6.65
2023-04-29T22:19:03.020Z,5.32
2023-04-29T22:21:29.755Z,4.80
2023-04-29T22:23:56.429Z,6.30
2023-04-29T22:26:25.330Z,5.43
2023-04-29T22:28:52.561Z,6.03
2023-04-29T22:31:19.347Z,5.70
2023-04-29T22:33:46.029Z,6.70
2023-04-29T22:36:12.712Z,6.72
2023-04-29T22:38:39.466Z,4.90
2023-04-29T22:41:07.212Z,5.93
2023-04-29T22:43:33.895Z,3.85
2023-04-29T22:46:01.094Z,7.13
2023-04-29T22:48:28.557Z,7.70
2023-04-29T22:50:57.360Z,5.70
2023-04-29T22:53:24.067Z,4.75
2023-04-29T22:55:58.826Z,5.57
2023-04-29T22:58:26.181Z,5.90
2023-04-29T23:00:56.433Z,4.90
2023-04-29T23:03:24.001Z,6.03
2023-04-29T23:05:50.826Z,6.57
2023-04-29T23:08:18.430Z,7.00
2023-04-29T23:10:49.896Z,4.60
2023-04-29T23:13:17.488Z,6.00
2023-04-29T23:15:44.793Z,6.35
2023-04-29T23:18:11.929Z,9.52
2023-04-29T23:20:38.709Z,6.78
2023-04-29T23:23:05.946Z,5.00
2023-04-29T23:25:32.624Z,6.82
2023-04-29T23:27:59.333Z,8.80
2023-04-29T23:30:26.136Z,5.93
2023-04-29T23:32:52.828Z,7.57
2023-04-29T23:35:19.489Z,13.40
2023-04-29T23:37:46.331Z,15.23
2023-04-29T23:40:22.061Z,7.00
2023-04-29T23:42:48.778Z,14.32
2023-04-29T23:45:15.689Z,5.05
2023-04-29T23:47:42.561Z,9.98
2023-04-29T23:50:09.540Z,9.40
2023-04-29T23:52:37.759Z,12.18
2023-04-29T23:55:04.870Z,7.60
2023-04-29T23:57:31.566Z,6.75
2023-04-29T23:59:59.466Z,7.93
